• Join FlightAware (Why Join?)
  • Login
  • US Flag 
05:33PM EDT


 

Airport Tracker/Info


-or-


 

Live Flight TrackerFlight Track Log ✈ SWA2166 ✈ 20-Apr-2013 ✈ KRNO - KPDX

Flight Track Log - Related Links

Times and Time Zones

All times are in EDT time to prevent confusion due to time zone crossing. See the SWA2166 flight status page for this flight to view local times or setup timezone preferences in your user account.

Time Position Orientation Groundspeed Altitude Reporting Facility
EDT Latitude Longitude Course Direction KTS MPH feet Rate Location/Type
01:24PM 39.4500 -119.7667 177° South 190 219 6,900  Level Northern Cal TRACON
01:25PM 39.3833 -119.7667 180° South 250 288 10,800 3,540 Climbing Northern Cal TRACON
01:25PM 39.3672 -119.7217 115° Southeast 292 336 12,900 2,520 Climbing Oakland Center
01:26PM 39.4153 -119.6633 43° Northeast 267 307 15,200 2,520 Climbing Oakland Center
01:27PM 39.5014 -119.6872 348° North 314 361 18,100 3,480 Climbing Oakland Center
01:28PM 39.6072 -119.7522 335° Northwest 348 400 22,300 3,600 Climbing Oakland Center
01:29PM 39.8601 -119.9101 322° Northwest  Level FlightAware Approximate
01:30PM 39.6964 -119.8103 333° Northwest 356 410 25,500  Level Oakland Center
01:31PM 39.7911 -119.8667 335° Northwest 370 426 28,100 2,340 Climbing Oakland Center
01:32PM 39.8878 -119.9269 334° Northwest 383 441 30,300 2,400 Climbing Oakland Center
01:33PM 39.9872 -119.9889 334° Northwest 393 452 33,100 2,700 Climbing Oakland Center
01:34PM 40.0831 -120.0489 334° Northwest 385 443 35,900 2,400 Climbing Oakland Center
01:35PM 40.1747 -120.1058 335° Northwest 368 423 38,100 1,800 Climbing Oakland Center
01:36PM 40.2653 -120.1619 335° Northwest 361 415 39,600 900 Climbing Oakland Center
01:37PM 40.3578 -120.2186 335° Northwest 364 419 40,000 180 Climbing Oakland Center
01:38PM 40.4536 -120.2786 335° Northwest 376 433 40,000  Level Oakland Center
01:39PM 40.5578 -120.3422 335° Northwest 383 441 40,000  Level Oakland Center
01:40PM 40.6531 -120.4017 335° Northwest 380 437 40,000  Level Oakland Center
01:41PM 40.7461 -120.4614 334° Northwest 376 433 40,000  Level Oakland Center
01:42PM 40.8411 -120.5203 335° Northwest 378 435 40,000  Level Oakland Center
01:42PM 40.8786 -120.5464 332° Northwest 375 432 40,000  Level Seattle Center
01:43PM 40.9736 -120.6067 334° Northwest 378 435 40,000  Level Seattle Center
01:44PM 41.0286 -120.6406 335° Northwest 379 436 40,000  Level Oakland Center
01:44PM 41.0681 -120.6667 333° Northwest 378 435 40,000  Level Seattle Center
01:45PM 41.1806 -120.7400 334° Northwest 376 433 40,000  Level Seattle Center
01:46PM 41.2744 -120.8008 334° Northwest 376 433 40,000  Level Seattle Center
01:47PM 41.3689 -120.8614 334° Northwest 377 434 40,000  Level Seattle Center
01:48PM 41.4622 -120.9219 334° Northwest 375 432 40,000  Level Seattle Center
01:49PM 41.5564 -120.9844 334° Northwest 377 434 40,000  Level Seattle Center
01:50PM 41.6494 -121.0447 334° Northwest 376 433 40,000  Level Seattle Center
01:51PM 41.7425 -121.1056 334° Northwest 374 430 40,000  Level Seattle Center
01:52PM 41.8367 -121.1681 334° Northwest 376 433 40,000  Level Seattle Center
01:53PM 41.9297 -121.2297 334° Northwest 376 433 40,000  Level Seattle Center
01:54PM 42.0206 -121.2900 334° Northwest 370 426 40,000  Level Seattle Center
01:55PM 42.1136 -121.3514 334° Northwest 374 430 40,000  Level Seattle Center
01:56PM 42.2056 -121.4122 334° Northwest 373 429 40,000  Level Seattle Center
01:57PM 42.2983 -121.4764 333° Northwest 377 434 40,000  Level Seattle Center
01:58PM 42.4006 -121.5608 329° Northwest 384 442 40,000  Level Seattle Center
01:59PM 42.4703 -121.6600 314° West 371 427 40,000  Level Seattle Center
02:00PM 42.5417 -121.7617 314° West 373 429 40,000  Level Seattle Center
02:01PM 42.6122 -121.8603 314° West 367 422 40,000  Level Seattle Center
02:02PM 42.6831 -121.9619 313° West 370 426 40,000  Level Seattle Center
02:03PM 42.7544 -122.0603 315° West 367 422 40,000  Level Seattle Center
02:04PM 42.8250 -122.1583 314° West 364 419 40,000  Level Seattle Center
02:06PM 42.9186 -122.2417 327° Northwest 364 419 40,000  Level Seattle Center
02:07PM 43.0192 -122.2794 345° North 372 428 40,000  Level Seattle Center
02:08PM 43.1186 -122.3214 343° North 372 428 40,000  Level Seattle Center
02:09PM 43.2172 -122.3611 344° North 370 426 40,000  Level Seattle Center
02:10PM 43.3178 -122.4011 344° North 374 430 40,000  Level Seattle Center
02:11PM 43.4175 -122.4425 343° North 375 432 40,000  Level Seattle Center
02:12PM 43.5175 -122.4844 343° North 375 432 40,000  Level Seattle Center
02:13PM 43.6167 -122.5267 343° North 375 432 40,000  Level Seattle Center
02:14PM 43.7164 -122.5686 343° North 374 430 40,000 -780 Level Seattle Center
02:15PM 43.8147 -122.6100 343° North 372 428 38,500 -2,100 Descending Seattle Center
02:16PM 43.9111 -122.6500 343° North 366 421 35,800 -2,520 Descending Seattle Center
02:17PM 44.0075 -122.6911 343° North 364 419 33,400 -2,340 Descending Seattle Center
02:18PM 44.1036 -122.7328 343° North 364 419 31,100 -2,220 Descending Seattle Center
02:19PM 44.2006 -122.7469 354° North 359 413 28,900 -2,400 Descending Seattle Center
02:20PM 44.3183 -122.7364 North 353 406 26,300 -2,220 Descending Seattle Center
02:21PM 44.3981 -122.7275 North 351 404 24,500 -2,220 Descending Seattle Center
02:22PM 44.5108 -122.7169 North 341 392 21,900 -2,340 Descending Seattle Center
02:23PM 44.6019 -122.7089 North 331 381 19,900 -1,860 Descending Seattle Center
02:23PM 44.6644 -122.7044 North 328 377 18,800 -1,680 Descending Seattle Center
02:24PM 44.6906 -122.6989 North 324 373 18,200 -1,800 Descending Seattle Center
02:24PM 44.7175 -122.6986 360° North 316 364 17,700 -1,740 Descending Seattle Center
02:25PM 44.7767 -122.6911 North 313 360 16,500 -1,800 Descending Seattle Center
02:25PM 44.8042 -122.6881 North 310 357 15,900 -2,220 Descending Seattle Center
02:26PM 44.8639 -122.6817 North 315 362 14,300 -2,400 Descending Seattle Center
02:26PM 44.8914 -122.6806 North 317 365 13,500 -2,400 Descending Seattle Center
02:27PM 44.9511 -122.6750 North 317 365 11,900 -2,340 Descending Seattle Center
02:27PM 44.9914 -122.6708 North 310 357 10,900 -1,620 Descending Seattle Center
02:28PM 45.0356 -122.6667 North 313 360 10,300 -1,140 Descending Seattle Center
02:28PM 45.0758 -122.6611 North 267 307 9,700 -1,380 Descending Seattle Center
02:29PM 45.1114 -122.6589 North 299 344 8,900 -1,680 Descending Seattle Center
02:29PM 45.1481 -122.6533 North 265 305 8,000 -1,800 Descending Seattle Center
02:30PM 45.1808 -122.6494 North 269 310 7,100 -1,800 Descending Seattle Center
02:30PM 45.2247 -122.6467 North 267 307 6,200 -1,620 Descending Seattle Center
02:31PM 45.2544 -122.6439 North 265 305 5,500 -1,200 Descending Seattle Center
02:31PM 45.2989 -122.6381 North 266 306 5,000 -540 Descending Seattle Center
02:32PM 45.3281 -122.6356 North 266 306 5,000  Level Seattle Center
02:32PM 45.3583 -122.6322 North 237 273 5,000  Level Seattle Center
02:33PM 45.3914 -122.6300 North 252 290 5,000  Level Seattle Center
02:33PM 45.4158 -122.6275 North 197 227 5,000  Level Seattle Center
02:34PM 45.4375 -122.5983 43° Northeast 211 243 5,000  Level Seattle Center
02:34PM 45.4286 -122.5731 117° Southeast 182 209 5,000  Level Seattle Center
02:35PM 45.4144 -122.5325 116° Southeast 195 224 5,000  Level Seattle Center
02:35PM 45.4069 -122.5081 114° Southeast 184 212 5,000 -600 Level Seattle Center
02:36PM 45.3961 -122.4633 109° East 188 216 4,400 -900 Descending Seattle Center
02:36PM 45.3925 -122.4369 101° East 191 220 4,100 -420 Descending Seattle Center
02:37PM 45.4025 -122.3978 70° East 191 220 4,000 -540 Descending Seattle Center
02:37PM 45.4208 -122.3853 26° Northeast 195 224 3,600 -1,140 Descending Seattle Center
02:38PM 45.4519 -122.3606 29° Northeast 198 228 2,900 -960 Descending Seattle Center
02:38PM 45.4792 -122.3519 13° North 181 208 2,500 -420 Descending Seattle Center
02:39PM 45.4969 -122.3658 331° Northwest 193 222 2,500  Level Seattle Center
02:39PM 45.5119 -122.3847 319° Northwest 172 198 2,500 -120 Level Seattle Center
02:40PM 45.5247 -122.4178 299° West 172 198 2,400 -540 Descending Seattle Center
02:40PM 45.5389 -122.4539 299° West 171 197 1,900 -900 Descending Seattle Center
02:41PM 45.5475 -122.4750 300° West 168 193 1,500 -840 Descending Seattle Center
02:41PM 45.5586 -122.5075 296° West 135 155 1,100 -720 Descending Seattle Center
02:42PM 45.5672 -122.5244 306° West 160 184 800 -660 Descending Seattle Center
02:42PM 45.5719 -122.5419 291° West 120 138 600 -300 Descending Seattle Center
02:43PM 45.5842 -122.5678 304° West 154 177 500 -180 Descending Seattle Center